Terminal Aerodrome Forecast
Issued by NWS

Home | Current Version | Previous Version | Text Only | Print | Product List | Glossary On
Versions: 1 2 3 4 5 6 7 8 9 10 11 12 13 14 15 16 17 18 19 20 21 22 23 24
000
FTUS46 KSGX 201400 AAA
TAFSAN
TAF AMD
KSAN 201444Z 2015/2118 VRB04KT P6SM OVC021
     FM201800 27010KT P6SM SCT022
     FM210300 VRB04KT P6SM OVC018
     FM211700 VRB05KT P6SM SCT020=

USA.gov is the U.S. government's official web portal to all federal, state and local government web resources and services.